sensor_id;sensor_type;location;lat;lon;timestamp;pressure;altitude;pressure_sealevel;temperature;humidity
64792;BME280;51226;47.504;19.074;2023-02-28T00:01:02;101367.62;;;3.16;45.79
64792;BME280;51226;47.504;19.074;2023-02-28T00:04:05;101374.22;;;3.23;45.82
64792;BME280;51226;47.504;19.074;2023-02-28T00:07:08;101371.88;;;3.15;46.13
64792;BME280;51226;47.504;19.074;2023-02-28T00:10:13;101380.75;;;3.09;46.47
64792;BME280;51226;47.504;19.074;2023-02-28T00:13:17;101378.84;;;3.06;46.77
64792;BME280;51226;47.504;19.074;2023-02-28T00:16:22;101379.37;;;3.23;46.59
64792;BME280;51226;47.504;19.074;2023-02-28T00:19:25;101384.25;;;3.20;46.61
64792;BME280;51226;47.504;19.074;2023-02-28T00:22:28;101392.50;;;3.05;47.35
64792;BME280;51226;47.504;19.074;2023-02-28T00:25:31;101401.91;;;3.15;46.77
64792;BME280;51226;47.504;19.074;2023-02-28T00:28:34;101401.50;;;3.10;46.70
64792;BME280;51226;47.504;19.074;2023-02-28T00:31:36;101399.59;;;3.08;46.94
64792;BME280;51226;47.504;19.074;2023-02-28T00:34:39;101400.34;;;3.07;47.35
64792;BME280;51226;47.504;19.074;2023-02-28T00:37:44;101398.94;;;3.21;46.95
64792;BME280;51226;47.504;19.074;2023-02-28T00:40:47;101404.22;;;3.12;47.20
64792;BME280;51226;47.504;19.074;2023-02-28T00:43:49;101401.91;;;3.25;47.10
64792;BME280;51226;47.504;19.074;2023-02-28T00:46:52;101399.44;;;3.27;47.06
64792;BME280;51226;47.504;19.074;2023-02-28T00:49:59;101410.31;;;3.12;47.71
64792;BME280;51226;47.504;19.074;2023-02-28T00:53:03;101409.13;;;3.09;47.82
64792;BME280;51226;47.504;19.074;2023-02-28T00:56:06;101409.91;;;3.08;47.96
64792;BME280;51226;47.504;19.074;2023-02-28T00:59:09;101407.81;;;3.14;47.57
64792;BME280;51226;47.504;19.074;2023-02-28T01:02:11;101407.19;;;3.27;47.33
64792;BME280;51226;47.504;19.074;2023-02-28T01:05:14;101409.00;;;3.18;47.84
64792;BME280;51226;47.504;19.074;2023-02-28T01:08:17;101408.34;;;3.30;47.44
64792;BME280;51226;47.504;19.074;2023-02-28T01:11:20;101406.44;;;3.18;47.85
64792;BME280;51226;47.504;19.074;2023-02-28T01:14:23;101410.03;;;3.20;47.68
64792;BME280;51226;47.504;19.074;2023-02-28T01:17:26;101406.16;;;3.25;47.78
64792;BME280;51226;47.504;19.074;2023-02-28T01:20:29;101407.72;;;3.12;47.97
64792;BME280;51226;47.504;19.074;2023-02-28T01:23:32;101414.28;;;3.19;48.05
64792;BME280;51226;47.504;19.074;2023-02-28T01:26:35;101414.28;;;3.19;47.90
64792;BME280;51226;47.504;19.074;2023-02-28T01:29:41;101409.78;;;3.17;48.00
64792;BME280;51226;47.504;19.074;2023-02-28T01:32:44;101411.06;;;3.22;47.82
64792;BME280;51226;47.504;19.074;2023-02-28T01:35:47;101410.28;;;3.23;47.48
64792;BME280;51226;47.504;19.074;2023-02-28T01:38:51;101406.16;;;3.25;47.64
64792;BME280;51226;47.504;19.074;2023-02-28T01:41:55;101411.72;;;3.19;47.63
64792;BME280;51226;47.504;19.074;2023-02-28T01:48:27;101413.09;;;3.15;48.06
64792;BME280;51226;47.504;19.074;2023-02-28T01:51:41;101413.91;;;3.14;47.96
64792;BME280;51226;47.504;19.074;2023-02-28T01:54:52;101406.78;;;3.22;47.18
64792;BME280;51226;47.504;19.074;2023-02-28T01:57:58;101402.16;;;3.18;47.55
64792;BME280;51226;47.504;19.074;2023-02-28T02:01:03;101403.47;;;3.13;47.94
64792;BME280;51226;47.504;19.074;2023-02-28T02:04:08;101411.19;;;3.13;47.74
64792;BME280;51226;47.504;19.074;2023-02-28T02:07:11;101408.88;;;3.16;47.70
64792;BME280;51226;47.504;19.074;2023-02-28T02:10:21;101408.75;;;3.14;48.08
64792;BME280;51226;47.504;19.074;2023-02-28T02:16:43;101406.31;;;3.16;47.99
64792;BME280;51226;47.504;19.074;2023-02-28T02:36:55;101403.06;;;3.29;47.00
64792;BME280;51226;47.504;19.074;2023-02-28T02:40:23;101398.81;;;3.09;47.87
64792;BME280;51226;47.504;19.074;2023-02-28T02:43:42;101402.03;;;3.06;47.86
64792;BME280;51226;47.504;19.074;2023-02-28T02:46:49;101407.19;;;3.17;47.50
64792;BME280;51226;47.504;19.074;2023-02-28T02:49:56;101405.78;;;3.10;47.63
64792;BME280;51226;47.504;19.074;2023-02-28T02:53:02;101405.78;;;3.10;47.97
64792;BME280;51226;47.504;19.074;2023-02-28T02:56:07;101405.16;;;3.12;48.38
64792;BME280;51226;47.504;19.074;2023-02-28T02:59:12;101406.28;;;3.26;47.83
64792;BME280;51226;47.504;19.074;2023-02-28T03:02:17;101403.19;;;3.20;48.39
64792;BME280;51226;47.504;19.074;2023-02-28T03:05:24;101401.75;;;3.24;48.21
64792;BME280;51226;47.504;19.074;2023-02-28T03:08:34;101405.50;;;3.17;48.53
64792;BME280;51226;47.504;19.074;2023-02-28T03:11:39;101404.47;;;3.15;48.40
64792;BME280;51226;47.504;19.074;2023-02-28T03:14:59;101411.47;;;3.16;48.51
64792;BME280;51226;47.504;19.074;2023-02-28T03:31:58;101412.84;;;3.02;49.11
64792;BME280;51226;47.504;19.074;2023-02-28T03:35:23;101421.50;;;3.13;48.84
64792;BME280;51226;47.504;19.074;2023-02-28T03:38:32;101416.47;;;3.04;48.41
64792;BME280;51226;47.504;19.074;2023-02-28T03:41:42;101409.78;;;3.17;47.88
64792;BME280;51226;47.504;19.074;2023-02-28T03:44:58;101415.19;;;3.09;48.12
64792;BME280;51226;47.504;19.074;2023-02-28T03:48:23;101408.22;;;3.08;47.84
64792;BME280;51226;47.504;19.074;2023-02-28T03:51:29;101420.09;;;3.17;47.73
64792;BME280;51226;47.504;19.074;2023-02-28T03:54:37;101415.19;;;3.20;47.51
64792;BME280;51226;47.504;19.074;2023-02-28T04:01:37;101414.66;;;3.13;47.60
64792;BME280;51226;47.504;19.074;2023-02-28T04:04:41;101418.12;;;3.14;47.33
64792;BME280;51226;47.504;19.074;2023-02-28T04:07:51;101413.91;;;3.04;47.59
64792;BME280;51226;47.504;19.074;2023-02-28T04:11:04;101411.69;;;3.09;47.57
64792;BME280;51226;47.504;19.074;2023-02-28T04:14:10;101409.25;;;3.10;47.29
64792;BME280;51226;47.504;19.074;2023-02-28T04:17:13;101406.16;;;3.04;47.30
64792;BME280;51226;47.504;19.074;2023-02-28T04:20:16;101408.88;;;3.06;46.49
64792;BME280;51226;47.504;19.074;2023-02-28T04:23:19;101415.19;;;3.09;46.20
64792;BME280;51226;47.504;19.074;2023-02-28T04:26:22;101401.38;;;2.88;46.86
64792;BME280;51226;47.504;19.074;2023-02-28T04:29:27;101406.13;;;2.94;46.60
64792;BME280;51226;47.504;19.074;2023-02-28T04:32:30;101401.78;;;2.93;46.42
64792;BME280;51226;47.504;19.074;2023-02-28T04:35:33;101402.53;;;2.82;46.91
64792;BME280;51226;47.504;19.074;2023-02-28T04:38:37;101399.31;;;2.84;47.08
64792;BME280;51226;47.504;19.074;2023-02-28T04:41:41;101405.88;;;2.81;47.25
64792;BME280;51226;47.504;19.074;2023-02-28T04:44:43;101401.38;;;2.88;46.84
64792;BME280;51226;47.504;19.074;2023-02-28T04:47:46;101400.63;;;2.89;46.45
64792;BME280;51226;47.504;19.074;2023-02-28T04:50:49;101402.81;;;3.05;45.73
64792;BME280;51226;47.504;19.074;2023-02-28T04:53:52;101401.25;;;2.97;45.92
64792;BME280;51226;47.504;19.074;2023-02-28T04:56:55;101395.97;;;2.95;46.19
64792;BME280;51226;47.504;19.074;2023-02-28T04:59:58;101400.22;;;2.85;46.58
64792;BME280;51226;47.504;19.074;2023-02-28T05:03:01;101396.34;;;2.90;46.11
64792;BME280;51226;47.504;19.074;2023-02-28T05:06:04;101395.81;;;2.84;46.40
64792;BME280;51226;47.504;19.074;2023-02-28T05:09:08;101393.91;;;2.71;46.84
64792;BME280;51226;47.504;19.074;2023-02-28T05:12:11;101398.94;;;2.80;46.31
64792;BME280;51226;47.504;19.074;2023-02-28T05:15:15;101401.25;;;2.76;46.74
64792;BME280;51226;47.504;19.074;2023-02-28T05:18:18;101400.47;;;2.77;46.19
64792;BME280;51226;47.504;19.074;2023-02-28T05:21:35;101402.41;;;2.80;46.00
64792;BME280;51226;47.504;19.074;2023-02-28T05:24:38;101402.00;;;2.75;46.66
64792;BME280;51226;47.504;19.074;2023-02-28T05:27:41;101408.97;;;2.76;46.55
64792;BME280;51226;47.504;19.074;2023-02-28T05:30:44;101409.72;;;2.75;46.75
64792;BME280;51226;47.504;19.074;2023-02-28T05:33:47;101412.16;;;2.74;46.50
64792;BME280;51226;47.504;19.074;2023-02-28T05:36:50;101416.31;;;2.82;46.22
64792;BME280;51226;47.504;19.074;2023-02-28T05:39:53;101406.66;;;2.90;46.08
64792;BME280;51226;47.504;19.074;2023-02-28T05:42:56;101420.44;;;2.80;46.60
64792;BME280;51226;47.504;19.074;2023-02-28T05:46:02;101418.66;;;2.89;46.30
64792;BME280;51226;47.504;19.074;2023-02-28T05:49:05;101415.81;;;2.96;45.86
64792;BME280;51226;47.504;19.074;2023-02-28T05:52:08;101421.59;;;2.84;46.57
64792;BME280;51226;47.504;19.074;2023-02-28T05:55:11;101418.25;;;2.85;46.33
64792;BME280;51226;47.504;19.074;2023-02-28T05:58:14;101424.69;;;2.90;46.34
64792;BME280;51226;47.504;19.074;2023-02-28T06:01:23;101431.41;;;2.98;47.06
64792;BME280;51226;47.504;19.074;2023-02-28T06:04:27;101431.81;;;3.03;47.23
64792;BME280;51226;47.504;19.074;2023-02-28T06:07:33;101432.16;;;3.07;46.26
64792;BME280;51226;47.504;19.074;2023-02-28T06:10:36;101432.84;;;3.05;46.88
64792;BME280;51226;47.504;19.074;2023-02-28T06:13:39;101428.31;;;3.02;47.04
64792;BME280;51226;47.504;19.074;2023-02-28T06:16:42;101446.47;;;3.14;46.51
64792;BME280;51226;47.504;19.074;2023-02-28T06:19:45;101432.97;;;3.27;46.00
64792;BME280;51226;47.504;19.074;2023-02-28T06:22:49;101434.78;;;3.28;45.78
64792;BME280;51226;47.504;19.074;2023-02-28T06:25:53;101441.50;;;3.26;45.73
64792;BME280;51226;47.504;19.074;2023-02-28T06:29:00;101449.72;;;3.32;45.39
64792;BME280;51226;47.504;19.074;2023-02-28T06:32:03;101446.66;;;3.36;45.15
64792;BME280;51226;47.504;19.074;2023-02-28T06:35:06;101447.94;;;3.31;45.46
64792;BME280;51226;47.504;19.074;2023-02-28T06:38:09;101447.78;;;3.40;44.94
64792;BME280;51226;47.504;19.074;2023-02-28T06:41:13;101446.09;;;3.50;44.48
64792;BME280;51226;47.504;19.074;2023-02-28T06:44:16;101455.66;;;3.51;44.31
64792;BME280;51226;47.504;19.074;2023-02-28T06:47:20;101462.62;;;3.52;43.96
64792;BME280;51226;47.504;19.074;2023-02-28T06:50:23;101465.22;;;3.52;44.01
64792;BME280;51226;47.504;19.074;2023-02-28T06:53:26;101457.06;;;3.68;43.53
64792;BME280;51226;47.504;19.074;2023-02-28T06:56:29;101457.94;;;3.69;43.61
64792;BME280;51226;47.504;19.074;2023-02-28T06:59:32;101451.38;;;3.73;43.89
64792;BME280;51226;47.504;19.074;2023-02-28T07:02:36;101457.37;;;3.94;43.63
64792;BME280;51226;47.504;19.074;2023-02-28T07:05:40;101463.31;;;4.03;43.31
64792;BME280;51226;47.504;19.074;2023-02-28T07:08:43;101458.50;;;4.18;42.86
64792;BME280;51226;47.504;19.074;2023-02-28T07:11:47;101464.09;;;4.34;42.33
64792;BME280;51226;47.504;19.074;2023-02-28T07:14:49;101465.16;;;4.58;41.98
64792;BME280;51226;47.504;19.074;2023-02-28T07:17:52;101471.66;;;4.75;41.66
64792;BME280;51226;47.504;19.074;2023-02-28T07:20:55;101475.88;;;4.85;41.47
64792;BME280;51226;47.504;19.074;2023-02-28T07:23:58;101463.66;;;4.94;41.42
64792;BME280;51226;47.504;19.074;2023-02-28T07:27:01;101475.50;;;5.03;41.67
64792;BME280;51226;47.504;19.074;2023-02-28T07:30:04;101475.78;;;5.17;40.88
64792;BME280;51226;47.504;19.074;2023-02-28T07:33:08;101474.56;;;5.24;41.03
64792;BME280;51226;47.504;19.074;2023-02-28T07:36:14;101475.69;;;5.50;40.25
64792;BME280;51226;47.504;19.074;2023-02-28T07:39:17;101478.84;;;5.57;40.51
64792;BME280;51226;47.504;19.074;2023-02-28T07:42:21;101475.50;;;5.82;40.03
64792;BME280;51226;47.504;19.074;2023-02-28T07:45:26;101486.66;;;5.93;39.57
64792;BME280;51226;47.504;19.074;2023-02-28T07:48:32;101488.63;;;6.07;39.77
64792;BME280;51226;47.504;19.074;2023-02-28T07:51:35;101484.44;;;6.21;39.29
64792;BME280;51226;47.504;19.074;2023-02-28T07:54:38;101484.34;;;6.32;38.94
64792;BME280;51226;47.504;19.074;2023-02-28T07:57:41;101477.13;;;6.39;38.97
64792;BME280;51226;47.504;19.074;2023-02-28T08:00:44;101474.37;;;6.61;37.86
64792;BME280;51226;47.504;19.074;2023-02-28T08:03:47;101481.78;;;6.80;37.76
64792;BME280;51226;47.504;19.074;2023-02-28T08:06:50;101475.03;;;7.08;36.92
64792;BME280;51226;47.504;19.074;2023-02-28T08:09:55;101478.63;;;7.35;37.25
64792;BME280;51226;47.504;19.074;2023-02-28T08:12:58;101467.03;;;7.82;36.43
64792;BME280;51226;47.504;19.074;2023-02-28T08:16:03;101476.00;;;8.25;35.38
64792;BME280;51226;47.504;19.074;2023-02-28T08:19:06;101470.34;;;8.73;33.82
64792;BME280;51226;47.504;19.074;2023-02-28T08:22:09;101477.09;;;9.40;32.98
64792;BME280;51226;47.504;19.074;2023-02-28T08:25:12;101478.09;;;10.02;32.35
64792;BME280;51226;47.504;19.074;2023-02-28T08:28:15;101471.53;;;10.70;31.07
64792;BME280;51226;47.504;19.074;2023-02-28T08:31:18;101477.84;;;10.59;30.68
64792;BME280;51226;47.504;19.074;2023-02-28T08:34:22;101470.87;;;10.90;30.23
64792;BME280;51226;47.504;19.074;2023-02-28T08:37:25;101460.84;;;12.16;28.18
64792;BME280;51226;47.504;19.074;2023-02-28T08:40:28;101458.81;;;13.23;27.02
64792;BME280;51226;47.504;19.074;2023-02-28T08:43:31;101464.44;;;13.71;26.38
64792;BME280;51226;47.504;19.074;2023-02-28T08:46:34;101462.81;;;14.17;25.41
64792;BME280;51226;47.504;19.074;2023-02-28T08:49:37;101459.97;;;15.01;23.75
64792;BME280;51226;47.504;19.074;2023-02-28T08:52:43;101458.41;;;16.61;22.67
64792;BME280;51226;47.504;19.074;2023-02-28T08:55:46;101452.16;;;18.18;20.71
64792;BME280;51226;47.504;19.074;2023-02-28T08:58:49;101439.56;;;20.29;18.50
64792;BME280;51226;47.504;19.074;2023-02-28T09:01:52;101439.19;;;22.29;17.76
64792;BME280;51226;47.504;19.074;2023-02-28T09:04:55;101437.03;;;23.59;16.30
64792;BME280;51226;47.504;19.074;2023-02-28T09:07:58;101437.75;;;22.99;16.96
64792;BME280;51226;47.504;19.074;2023-02-28T09:11:01;101438.84;;;21.89;16.81
64792;BME280;51226;47.504;19.074;2023-02-28T09:14:05;101445.72;;;20.28;18.02
64792;BME280;51226;47.504;19.074;2023-02-28T09:17:07;101445.25;;;19.02;19.29
64792;BME280;51226;47.504;19.074;2023-02-28T09:20:10;101443.25;;;18.13;20.63
64792;BME280;51226;47.504;19.074;2023-02-28T09:23:13;101454.16;;;17.27;20.84
64792;BME280;51226;47.504;19.074;2023-02-28T09:26:19;101446.66;;;16.22;21.87
64792;BME280;51226;47.504;19.074;2023-02-28T09:29:22;101461.78;;;14.78;24.18
64792;BME280;51226;47.504;19.074;2023-02-28T09:32:25;101455.72;;;13.73;25.41
64792;BME280;51226;47.504;19.074;2023-02-28T09:35:27;101462.19;;;13.21;25.83
64792;BME280;51226;47.504;19.074;2023-02-28T09:38:30;101473.53;;;12.27;27.40
64792;BME280;51226;47.504;19.074;2023-02-28T09:41:39;101468.28;;;11.40;29.02
64792;BME280;51226;47.504;19.074;2023-02-28T09:44:50;101468.53;;;11.11;28.66
64792;BME280;51226;47.504;19.074;2023-02-28T09:47:56;101461.91;;;10.69;29.68
64792;BME280;51226;47.504;19.074;2023-02-28T09:51:45;101456.87;;;10.26;30.61
64792;BME280;51226;47.504;19.074;2023-02-28T09:54:51;101464.75;;;10.27;30.94
64792;BME280;51226;47.504;19.074;2023-02-28T09:57:55;101464.97;;;10.15;32.12
64792;BME280;51226;47.504;19.074;2023-02-28T10:07:50;101459.72;;;10.45;30.69
64792;BME280;51226;47.504;19.074;2023-02-28T10:11:00;101455.97;;;10.40;30.87
64792;BME280;51226;47.504;19.074;2023-02-28T10:14:15;101455.00;;;10.23;31.93
64792;BME280;51226;47.504;19.074;2023-02-28T10:17:26;101448.62;;;10.33;31.51
64792;BME280;51226;47.504;19.074;2023-02-28T10:20:42;101454.41;;;10.75;30.75
64792;BME280;51226;47.504;19.074;2023-02-28T10:23:48;101452.88;;;11.11;30.41
64792;BME280;51226;47.504;19.074;2023-02-28T10:26:52;101446.91;;;11.30;30.40
64792;BME280;51226;47.504;19.074;2023-02-28T10:30:01;101441.56;;;11.96;28.96
64792;BME280;51226;47.504;19.074;2023-02-28T10:33:04;101428.53;;;12.34;28.45
64792;BME280;51226;47.504;19.074;2023-02-28T10:36:13;101434.78;;;12.55;27.81
64792;BME280;51226;47.504;19.074;2023-02-28T10:39:39;101431.53;;;12.41;28.17
64792;BME280;51226;47.504;19.074;2023-02-28T10:42:55;101423.69;;;12.41;28.11
64792;BME280;51226;47.504;19.074;2023-02-28T10:49:20;101430.09;;;11.94;29.65
64792;BME280;51226;47.504;19.074;2023-02-28T10:52:36;101415.53;;;11.47;30.48
64792;BME280;51226;47.504;19.074;2023-02-28T10:55:40;101421.88;;;11.52;29.98
64792;BME280;51226;47.504;19.074;2023-02-28T11:01:52;101414.59;;;11.28;30.51
64792;BME280;51226;47.504;19.074;2023-02-28T11:04:55;101418.16;;;10.96;30.98
64792;BME280;51226;47.504;19.074;2023-02-28T11:08:06;101411.94;;;10.61;32.41
64792;BME280;51226;47.504;19.074;2023-02-28T11:11:17;101417.16;;;10.61;31.96
64792;BME280;51226;47.504;19.074;2023-02-28T11:14:29;101420.97;;;10.68;31.85
64792;BME280;51226;47.504;19.074;2023-02-28T11:17:33;101411.75;;;10.58;32.02
64792;BME280;51226;47.504;19.074;2023-02-28T11:20:36;101412.56;;;10.57;32.51
64792;BME280;51226;47.504;19.074;2023-02-28T11:23:40;101417.38;;;10.66;32.51
64792;BME280;51226;47.504;19.074;2023-02-28T11:26:46;101405.97;;;10.80;31.97
64792;BME280;51226;47.504;19.074;2023-02-28T11:29:51;101401.91;;;10.85;32.24
64792;BME280;51226;47.504;19.074;2023-02-28T11:32:54;101402.56;;;10.65;32.41
64792;BME280;51226;47.504;19.074;2023-02-28T11:36:10;101402.22;;;10.59;32.64
64792;BME280;51226;47.504;19.074;2023-02-28T11:39:15;101396.59;;;10.67;32.60
64792;BME280;51226;47.504;19.074;2023-02-28T11:49:13;101395.47;;;10.31;33.28
64792;BME280;51226;47.504;19.074;2023-02-28T11:52:40;101400.06;;;10.20;33.48
64792;BME280;51226;47.504;19.074;2023-02-28T11:56:02;101393.25;;;10.07;34.24
64792;BME280;51226;47.504;19.074;2023-02-28T12:09:40;101376.16;;;11.26;31.93
64792;BME280;51226;47.504;19.074;2023-02-28T12:19:13;101373.81;;;11.14;32.70
64792;BME280;51226;47.504;19.074;2023-02-28T12:22:30;101377.16;;;11.46;32.13
64792;BME280;51226;47.504;19.074;2023-02-28T12:25:50;101365.84;;;11.63;32.04
64792;BME280;51226;47.504;19.074;2023-02-28T12:29:23;101351.31;;;11.86;31.54
64792;BME280;51226;47.504;19.074;2023-02-28T12:32:35;101352.22;;;12.05;30.85
64792;BME280;51226;47.504;19.074;2023-02-28T12:35:48;101345.31;;;12.25;30.68
64792;BME280;51226;47.504;19.074;2023-02-28T12:38:56;101345.75;;;12.54;30.37
64792;BME280;51226;47.504;19.074;2023-02-28T12:42:24;101337.69;;;12.88;29.91
64792;BME280;51226;47.504;19.074;2023-02-28T12:45:46;101339.94;;;13.00;29.55
64792;BME280;51226;47.504;19.074;2023-02-28T12:48:56;101339.03;;;13.00;29.62
64792;BME280;51226;47.504;19.074;2023-02-28T12:52:01;101343.22;;;12.75;30.53
64792;BME280;51226;47.504;19.074;2023-02-28T12:55:23;101344.84;;;12.53;30.66
64792;BME280;51226;47.504;19.074;2023-02-28T12:58:43;101343.00;;;12.70;30.30
64792;BME280;51226;47.504;19.074;2023-02-28T13:12:15;101322.19;;;12.54;30.71
64792;BME280;51226;47.504;19.074;2023-02-28T13:15:22;101324.19;;;12.40;31.20
64792;BME280;51226;47.504;19.074;2023-02-28T13:18:34;101336.56;;;12.25;31.66
64792;BME280;51226;47.504;19.074;2023-02-28T13:21:43;101325.91;;;11.84;32.62
64792;BME280;51226;47.504;19.074;2023-02-28T13:24:49;101320.91;;;11.71;33.04
64792;BME280;51226;47.504;19.074;2023-02-28T13:27:54;101313.06;;;11.71;32.83
64792;BME280;51226;47.504;19.074;2023-02-28T13:31:03;101318.59;;;11.77;32.56
64792;BME280;51226;47.504;19.074;2023-02-28T13:34:14;101312.97;;;11.87;32.19
64792;BME280;51226;47.504;19.074;2023-02-28T13:40:33;101310.09;;;11.45;33.60
64792;BME280;51226;47.504;19.074;2023-02-28T13:44:00;101310.50;;;11.54;32.88
64792;BME280;51226;47.504;19.074;2023-02-28T13:53:54;101290.22;;;11.30;33.21
64792;BME280;51226;47.504;19.074;2023-02-28T14:00:23;101302.91;;;10.72;34.83
64792;BME280;51226;47.504;19.074;2023-02-28T14:06:47;101290.63;;;10.53;34.67
64792;BME280;51226;47.504;19.074;2023-02-28T14:09:57;101289.16;;;10.42;34.84
64792;BME280;51226;47.504;19.074;2023-02-28T14:16:48;101283.97;;;10.10;35.66
64792;BME280;51226;47.504;19.074;2023-02-28T14:19:52;101281.34;;;10.10;35.64
64792;BME280;51226;47.504;19.074;2023-02-28T14:24:03;101288.16;;;9.92;36.68
64792;BME280;51226;47.504;19.074;2023-02-28T14:34:04;101283.25;;;9.35;37.48
64792;BME280;51226;47.504;19.074;2023-02-28T14:37:26;101277.53;;;9.26;37.45
64792;BME280;51226;47.504;19.074;2023-02-28T14:40:34;101277.28;;;9.06;37.91
64792;BME280;51226;47.504;19.074;2023-02-28T14:43:48;101270.63;;;8.97;38.49
64792;BME280;51226;47.504;19.074;2023-02-28T14:46:59;101280.34;;;8.99;38.23
64792;BME280;51226;47.504;19.074;2023-02-28T14:50:18;101273.25;;;9.12;37.79
64792;BME280;51226;47.504;19.074;2023-02-28T14:53:22;101280.22;;;8.83;38.51
64792;BME280;51226;47.504;19.074;2023-02-28T14:56:33;101277.91;;;8.73;38.63
64792;BME280;51226;47.504;19.074;2023-02-28T14:59:36;101279.25;;;8.81;38.50
64792;BME280;51226;47.504;19.074;2023-02-28T15:02:40;101282.19;;;8.57;39.31
64792;BME280;51226;47.504;19.074;2023-02-28T15:05:51;101286.38;;;8.55;39.86
64792;BME280;51226;47.504;19.074;2023-02-28T15:12:14;101290.38;;;8.50;39.07
64792;BME280;51226;47.504;19.074;2023-02-28T15:15:18;101290.75;;;8.28;39.62
64792;BME280;51226;47.504;19.074;2023-02-28T15:21:54;101298.09;;;8.07;40.50
64792;BME280;51226;47.504;19.074;2023-02-28T15:24:59;101297.53;;;7.97;41.16
64792;BME280;51226;47.504;19.074;2023-02-28T15:28:05;101291.06;;;7.91;41.31
64792;BME280;51226;47.504;19.074;2023-02-28T15:31:20;101284.56;;;7.84;41.35
64792;BME280;51226;47.504;19.074;2023-02-28T15:34:41;101287.66;;;7.92;41.27
64792;BME280;51226;47.504;19.074;2023-02-28T15:40:58;101279.06;;;7.79;42.16
64792;BME280;51226;47.504;19.074;2023-02-28T15:47:29;101279.81;;;7.64;43.06
64792;BME280;51226;47.504;19.074;2023-02-28T15:50:32;101285.38;;;7.56;42.96
64792;BME280;51226;47.504;19.074;2023-02-28T15:56:57;101282.81;;;7.43;43.72
64792;BME280;51226;47.504;19.074;2023-02-28T16:00:04;101281.41;;;7.35;43.75
64792;BME280;51226;47.504;19.074;2023-02-28T16:03:38;101280.09;;;7.28;44.19
64792;BME280;51226;47.504;19.074;2023-02-28T16:06:44;101281.50;;;7.23;44.45
64792;BME280;51226;47.504;19.074;2023-02-28T16:09:46;101284.19;;;7.24;44.13
64792;BME280;51226;47.504;19.074;2023-02-28T16:12:53;101286.78;;;7.24;43.73
64792;BME280;51226;47.504;19.074;2023-02-28T16:15:56;101289.97;;;7.07;44.61
64792;BME280;51226;47.504;19.074;2023-02-28T16:18:59;101298.34;;;7.03;44.71
64792;BME280;51226;47.504;19.074;2023-02-28T16:22:02;101296.34;;;6.99;44.88
64792;BME280;51226;47.504;19.074;2023-02-28T16:25:05;101307.28;;;6.95;45.36
64792;BME280;51226;47.504;19.074;2023-02-28T16:28:21;101300.00;;;6.89;45.94
64792;BME280;51226;47.504;19.074;2023-02-28T16:31:27;101302.69;;;6.91;46.00
64792;BME280;51226;47.504;19.074;2023-02-28T16:34:31;101303.88;;;6.82;46.28
64792;BME280;51226;47.504;19.074;2023-02-28T16:37:34;101311.00;;;6.73;46.76
64792;BME280;51226;47.504;19.074;2023-02-28T16:40:37;101301.69;;;6.75;46.82
64792;BME280;51226;47.504;19.074;2023-02-28T16:43:40;101307.81;;;6.64;47.02
64792;BME280;51226;47.504;19.074;2023-02-28T16:46:42;101309.09;;;6.57;46.99
64792;BME280;51226;47.504;19.074;2023-02-28T16:49:45;101319.00;;;6.51;47.29
64792;BME280;51226;47.504;19.074;2023-02-28T16:52:50;101315.09;;;6.44;47.54
64792;BME280;51226;47.504;19.074;2023-02-28T16:55:57;101316.41;;;6.51;47.43
64792;BME280;51226;47.504;19.074;2023-02-28T16:59:01;101319.59;;;6.47;47.79
64792;BME280;51226;47.504;19.074;2023-02-28T17:02:11;101326.16;;;6.42;48.13
64792;BME280;51226;47.504;19.074;2023-02-28T17:05:15;101325.56;;;6.46;48.44
64792;BME280;51226;47.504;19.074;2023-02-28T17:08:19;101327.06;;;6.42;48.55
64792;BME280;51226;47.504;19.074;2023-02-28T17:11:22;101334.06;;;6.43;48.57
64792;BME280;51226;47.504;19.074;2023-02-28T17:14:28;101333.78;;;6.52;48.57
64792;BME280;51226;47.504;19.074;2023-02-28T17:17:30;101336.53;;;6.42;48.89
64792;BME280;51226;47.504;19.074;2023-02-28T17:20:34;101340.22;;;6.45;49.15
64792;BME280;51226;47.504;19.074;2023-02-28T17:23:36;101337.19;;;6.39;49.46
64792;BME280;51226;47.504;19.074;2023-02-28T17:26:41;101336.31;;;6.39;49.20
64792;BME280;51226;47.504;19.074;2023-02-28T17:29:44;101336.41;;;6.40;49.16
64792;BME280;51226;47.504;19.074;2023-02-28T17:32:47;101330.12;;;6.37;49.58
64792;BME280;51226;47.504;19.074;2023-02-28T17:35:50;101334.75;;;6.29;49.72
64792;BME280;51226;47.504;19.074;2023-02-28T17:38:54;101338.94;;;6.27;49.89
64792;BME280;51226;47.504;19.074;2023-02-28T17:42:00;101340.41;;;6.23;50.01
64792;BME280;51226;47.504;19.074;2023-02-28T17:45:04;101345.78;;;6.26;49.95
64792;BME280;51226;47.504;19.074;2023-02-28T17:48:09;101341.75;;;6.30;49.93
64792;BME280;51226;47.504;19.074;2023-02-28T17:51:14;101337.12;;;6.26;49.71
64792;BME280;51226;47.504;19.074;2023-02-28T17:54:17;101340.84;;;6.29;49.81
64792;BME280;51226;47.504;19.074;2023-02-28T17:57:21;101341.78;;;6.18;50.09
64792;BME280;51226;47.504;19.074;2023-02-28T18:00:24;101336.59;;;6.18;50.38
64792;BME280;51226;47.504;19.074;2023-02-28T18:03:27;101339.19;;;6.18;50.62
64792;BME280;51226;47.504;19.074;2023-02-28T18:06:40;101346.63;;;6.14;50.61
64792;BME280;51226;47.504;19.074;2023-02-28T18:09:52;101345.72;;;6.13;50.63
64792;BME280;51226;47.504;19.074;2023-02-28T18:12:55;101349.22;;;6.14;50.69
64792;BME280;51226;47.504;19.074;2023-02-28T18:15:58;101344.94;;;6.14;50.89
64792;BME280;51226;47.504;19.074;2023-02-28T18:19:01;101354.63;;;6.17;50.55
64792;BME280;51226;47.504;19.074;2023-02-28T18:22:05;101352.81;;;6.16;50.87
64792;BME280;51226;47.504;19.074;2023-02-28T18:25:11;101356.41;;;6.18;50.83